Terminal Aerodrome Forecast
Issued by NWS

Home | Current Version | Previous Version | Graphics & Text | Print | Product List | Glossary On
Versions: 1 2 3 4 5 6 7 8 9 10 11 12 13
000
FTUS43 KMPX 241151
TAFRWF
TAF
KRWF 241151Z 2412/2512 28006KT P6SM FEW020
      TEMPO 2412/2413 BKN020
     FM241600 29012G18KT P6SM SKC
     FM250100 28005KT P6SM FEW250=

USA.gov is the U.S. government's official web portal to all federal, state and local government web resources and services.